Time;durP1;ratioP1;P1;durP2;ratioP2;P2;SDS_P1;SDS_P2;PMS_P1;PMS_P2;Temp;Humidity;BMP_temperature;BMP_pressure;BME280_temperature;BME280_humidity;BME280_pressure;Samples;Min_cycle;Max_cycle;Signal;HPM_P1;HPM_P2
2022/01/10 00:00:46;;;;;;;0.93;0.30;;;0.60;92.90;;;;;;6187060;23;20004;-77
2022/01/10 00:03:11;;;;;;;0.50;0.40;;;0.60;92.90;;;;;;6186879;23;20005;-78
2022/01/10 00:05:37;;;;;;;0.50;0.30;;;0.40;92.90;;;;;;6214250;23;20101;-77
2022/01/10 00:08:04;;;;;;;1.00;0.38;;;0.50;92.90;;;;;;6187110;23;20013;-77
2022/01/10 00:10:31;;;;;;;0.45;0.30;;;0.50;92.90;;;;;;6184387;23;20023;-77
2022/01/10 00:12:57;;;;;;;0.22;0.20;;;0.50;93.20;;;;;;6186961;23;20371;-78
2022/01/10 00:15:23;;;;;;;1.40;0.60;;;0.50;93.00;;;;;;6210626;23;20027;-77
2022/01/10 00:17:49;;;;;;;1.20;0.57;;;0.50;92.90;;;;;;6185516;23;20012;-77
2022/01/10 00:20:17;;;;;;;0.28;0.20;;;0.40;92.90;;;;;;6162154;23;20458;-78
2022/01/10 00:22:48;;;;;;;0.47;0.20;;;0.40;92.90;;;;;;6213616;23;20013;-77
2022/01/10 00:25:16;;;;;;;0.35;0.35;;;0.40;92.90;;;;;;6187126;23;20012;-77
2022/01/10 00:27:42;;;;;;;0.30;0.30;;;0.40;92.90;;;;;;6162346;23;20013;-77
2022/01/10 00:30:10;;;;;;;0.28;0.28;;;0.30;92.90;;;;;;6210288;23;20004;-77
2022/01/10 00:32:37;;;;;;;0.55;0.30;;;0.30;92.90;;;;;;6185298;23;20079;-77
2022/01/10 00:35:03;;;;;;;0.43;0.20;;;0.30;92.90;;;;;;6185911;23;20481;-77
2022/01/10 00:37:28;;;;;;;0.32;0.20;;;0.30;92.90;;;;;;6186230;23;20044;-77
2022/01/10 00:39:54;;;;;;;0.28;0.28;;;0.30;93.00;;;;;;6160444;23;20001;-77
2022/01/10 00:42:20;;;;;;;0.25;0.22;;;0.20;92.90;;;;;;6209426;23;20006;-77
2022/01/10 00:44:51;;;;;;;0.40;0.40;;;0.20;92.90;;;;;;6211828;23;20001;-78
2022/01/10 00:47:17;;;;;;;0.30;0.30;;;0.20;92.90;;;;;;6186711;23;20023;-77
2022/01/10 00:49:44;;;;;;;0.30;0.20;;;0.20;92.90;;;;;;6164621;23;20011;-77
2022/01/10 00:52:10;;;;;;;1.33;0.28;;;0.20;92.90;;;;;;6186460;23;20028;-78
2022/01/10 00:54:36;;;;;;;0.85;0.40;;;0.20;92.90;;;;;;6214226;23;20003;-78
2022/01/10 00:57:02;;;;;;;1.20;0.40;;;0.20;93.00;;;;;;6211633;23;20493;-78
2022/01/10 00:59:28;;;;;;;0.30;0.25;;;0.20;92.90;;;;;;6159738;23;20001;-77
2022/01/10 01:01:54;;;;;;;1.10;0.40;;;0.10;92.90;;;;;;6213662;23;20425;-78
2022/01/10 01:04:20;;;;;;;0.82;0.35;;;0.10;92.90;;;;;;6184181;23;20043;-78
2022/01/10 01:06:47;;;;;;;1.23;0.40;;;0.10;92.90;;;;;;6211505;23;20011;-78
2022/01/10 01:09:16;;;;;;;0.20;0.20;;;0.10;92.90;;;;;;6186935;23;20017;-77
2022/01/10 01:14:36;;;;;;;0.60;0.30;;;0.10;92.90;;;;;;6213782;23;20015;-78
2022/01/10 01:25:02;;;;;;;0.68;0.40;;;0.10;92.90;;;;;;6210958;23;20013;-78
2022/01/10 01:27:27;;;;;;;1.40;1.08;;;0.00;92.90;;;;;;6210004;23;20042;-78
2022/01/10 01:29:53;;;;;;;0.32;0.20;;;0.10;92.90;;;;;;6184020;23;20012;-77
2022/01/10 01:32:19;;;;;;;0.50;0.30;;;0.00;92.90;;;;;;6186150;23;20325;-78
2022/01/10 01:34:45;;;;;;;0.30;0.30;;;0.00;92.90;;;;;;6210528;23;20055;-78
2022/01/10 01:37:11;;;;;;;0.70;0.40;;;0.00;92.90;;;;;;6209138;23;20004;-78
2022/01/10 01:39:37;;;;;;;0.45;0.30;;;0.00;92.90;;;;;;6186712;23;20008;-77
2022/01/10 01:42:18;;;;;;;1.42;0.35;;;0.00;92.90;;;;;;6185015;23;20010;-78
2022/01/10 01:44:48;;;;;;;0.60;0.30;;;-0.10;92.90;;;;;;6186765;23;20008;-78
2022/01/10 01:47:14;;;;;;;0.35;0.30;;;-0.10;92.90;;;;;;6213099;23;20075;-77
2022/01/10 01:49:40;;;;;;;0.43;0.43;;;-0.10;92.90;;;;;;6159555;23;20001;-77
2022/01/10 01:52:06;;;;;;;0.85;0.55;;;-0.10;92.90;;;;;;6185963;23;20008;-78
2022/01/10 01:54:31;;;;;;;0.68;0.43;;;-0.10;92.90;;;;;;6185385;23;20080;-78
2022/01/10 01:56:58;;;;;;;1.85;0.35;;;-0.10;92.90;;;;;;6184322;23;20333;-77
2022/01/10 01:59:24;;;;;;;0.50;0.40;;;-0.10;92.90;;;;;;6161440;23;20016;-78
2022/01/10 02:01:50;;;;;;;0.60;0.35;;;-0.10;92.90;;;;;;6210930;23;20349;-79
2022/01/10 02:04:16;;;;;;;0.45;0.43;;;-0.10;92.90;;;;;;6159885;23;20059;-79
2022/01/10 02:06:42;;;;;;;0.55;0.30;;;-0.20;92.90;;;;;;6209374;23;20348;-78
2022/01/10 02:09:07;;;;;;;1.45;0.35;;;-0.10;92.90;;;;;;6213062;23;20016;-78
2022/01/10 02:11:33;;;;;;;0.30;0.30;;;-0.20;92.90;;;;;;6211078;23;20071;-78
2022/01/10 02:14:00;;;;;;;0.60;0.38;;;-0.20;92.90;;;;;;6184482;23;20084;-78
2022/01/10 02:16:39;;;;;;;0.40;0.40;;;-0.20;92.90;;;;;;6186752;23;20135;-78
2022/01/10 02:19:04;;;;;;;0.52;0.52;;;-0.20;92.90;;;;;;6185402;23;20063;-78
2022/01/10 02:21:30;;;;;;;0.93;0.50;;;-0.20;92.90;;;;;;6187259;23;20431;-78
2022/01/10 02:23:57;;;;;;;0.32;0.30;;;-0.20;92.90;;;;;;6213503;23;20328;-78
2022/01/10 02:26:23;;;;;;;0.22;0.20;;;-0.20;92.90;;;;;;6161957;23;20795;-77
2022/01/10 02:28:49;;;;;;;0.55;0.43;;;-0.20;92.90;;;;;;6212922;23;20121;-78
2022/01/10 02:31:15;;;;;;;1.00;0.40;;;-0.20;92.90;;;;;;6186431;23;20028;-78
2022/01/10 02:33:41;;;;;;;0.40;0.30;;;-0.20;92.90;;;;;;6213255;23;20297;-78
2022/01/10 02:36:17;;;;;;;1.83;0.30;;;-0.30;92.90;;;;;;6210088;23;20119;-77
2022/01/10 02:38:48;;;;;;;0.63;0.45;;;-0.30;92.90;;;;;;6211991;23;20011;-78
2022/01/10 02:41:20;;;;;;;0.47;0.30;;;-0.30;92.90;;;;;;6211450;23;20005;-77
2022/01/10 02:43:45;;;;;;;0.45;0.30;;;-0.30;92.90;;;;;;6208871;23;20615;-78
2022/01/10 02:46:11;;;;;;;0.90;0.45;;;-0.30;92.90;;;;;;6185709;23;20001;-78
2022/01/10 02:48:37;;;;;;;0.65;0.30;;;-0.20;92.90;;;;;;6186381;23;20108;-78
2022/01/10 02:51:02;;;;;;;0.40;0.40;;;-0.30;92.90;;;;;;6208944;23;20007;-78
2022/01/10 02:53:28;;;;;;;1.20;0.77;;;-0.40;92.90;;;;;;6185864;23;20429;-77
2022/01/10 02:55:54;;;;;;;1.08;0.60;;;-0.30;92.90;;;;;;6161563;23;20075;-78
2022/01/10 02:58:20;;;;;;;0.93;0.50;;;-0.40;92.90;;;;;;6186648;23;20451;-78
2022/01/10 03:00:45;;;;;;;0.60;0.40;;;-0.30;92.90;;;;;;6186248;23;20429;-78
2022/01/10 03:03:11;;;;;;;0.80;0.50;;;-0.40;92.90;;;;;;6161473;23;20017;-78
2022/01/10 03:05:37;;;;;;;0.38;0.32;;;-0.40;92.90;;;;;;6209425;23;20011;-79
2022/01/10 03:08:03;;;;;;;0.43;0.40;;;-0.40;92.90;;;;;;6186196;23;20013;-77
2022/01/10 03:10:30;;;;;;;0.50;0.32;;;-0.40;92.90;;;;;;6210925;23;19997;-78
2022/01/10 03:12:57;;;;;;;0.43;0.35;;;-0.40;92.90;;;;;;6185184;23;20092;-77
2022/01/10 03:15:23;;;;;;;1.05;0.35;;;-0.40;93.00;;;;;;6209216;23;20079;-78
2022/01/10 03:17:49;;;;;;;1.33;0.43;;;-0.50;92.90;;;;;;6155950;23;20615;-77
2022/01/10 03:20:14;;;;;;;1.00;0.55;;;-0.50;92.90;;;;;;6186019;23;20104;-77
2022/01/10 03:22:40;;;;;;;0.30;0.30;;;-0.40;93.00;;;;;;6161341;23;20000;-77
2022/01/10 03:25:06;;;;;;;0.88;0.40;;;-0.40;93.00;;;;;;6212865;23;20011;-77
2022/01/10 03:27:32;;;;;;;0.60;0.47;;;-0.40;93.00;;;;;;6186777;23;20023;-77
2022/01/10 03:29:58;;;;;;;1.40;0.40;;;-0.50;92.90;;;;;;6212810;23;19996;-77
2022/01/10 03:32:25;;;;;;;0.73;0.50;;;-0.50;92.90;;;;;;6209164;23;20008;-77
2022/01/10 03:34:50;;;;;;;0.40;0.40;;;-0.40;93.00;;;;;;6208307;23;20444;-77
2022/01/10 03:37:16;;;;;;;0.50;0.50;;;-0.50;92.90;;;;;;6185482;23;20032;-77
2022/01/10 03:39:42;;;;;;;0.47;0.35;;;-0.50;93.00;;;;;;6184541;23;19997;-77
2022/01/10 03:42:08;;;;;;;1.10;0.50;;;-0.50;93.00;;;;;;6208488;23;20067;-77
2022/01/10 03:44:34;;;;;;;0.52;0.30;;;-0.50;93.00;;;;;;6210888;23;20007;-77
2022/01/10 03:47:01;;;;;;;0.70;0.60;;;-0.50;92.90;;;;;;6212783;23;20373;-78
2022/01/10 03:49:27;;;;;;;0.55;0.47;;;-0.50;92.90;;;;;;6184744;23;20310;-78
2022/01/10 03:51:53;;;;;;;0.47;0.47;;;-0.50;92.90;;;;;;6208075;23;20005;-77
2022/01/10 03:54:18;;;;;;;0.70;0.50;;;-0.50;92.90;;;;;;6185372;23;20088;-78
2022/01/10 03:56:44;;;;;;;0.98;0.60;;;-0.40;92.90;;;;;;6185071;23;20016;-78
2022/01/10 03:59:10;;;;;;;0.47;0.43;;;-0.40;92.80;;;;;;6158786;23;20369;-78
2022/01/10 04:01:39;;;;;;;0.65;0.60;;;-0.40;92.90;;;;;;6185686;23;20004;-78
2022/01/10 04:04:07;;;;;;;0.60;0.60;;;-0.40;92.90;;;;;;6212779;23;20425;-78
2022/01/10 04:06:33;;;;;;;0.80;0.40;;;-0.40;92.90;;;;;;6210566;23;20329;-78
2022/01/10 04:08:59;;;;;;;0.68;0.55;;;-0.40;92.90;;;;;;6184174;23;20437;-78
2022/01/10 04:11:25;;;;;;;0.75;0.40;;;-0.30;92.90;;;;;;6208757;23;20004;-78
2022/01/10 04:13:50;;;;;;;0.57;0.30;;;-0.30;92.80;;;;;;6210089;23;20487;-78
2022/01/10 04:16:16;;;;;;;0.95;0.52;;;-0.30;92.80;;;;;;6212613;23;19997;-78
2022/01/10 04:18:42;;;;;;;0.65;0.45;;;-0.30;92.80;;;;;;6158539;23;20005;-78
2022/01/10 04:21:08;;;;;;;0.73;0.65;;;-0.30;92.70;;;;;;6185542;23;20036;-78
2022/01/10 04:23:34;;;;;;;1.23;0.70;;;-0.30;92.80;;;;;;6184685;23;20621;-78
2022/01/10 04:26:00;;;;;;;0.80;0.50;;;-0.30;92.80;;;;;;6212325;23;20009;-78
2022/01/10 04:28:26;;;;;;;1.33;0.60;;;-0.30;92.80;;;;;;6186382;23;20047;-78
2022/01/10 04:30:52;;;;;;;0.38;0.38;;;-0.30;92.80;;;;;;6161722;23;20062;-78
2022/01/10 04:33:19;;;;;;;0.40;0.40;;;-0.20;92.80;;;;;;6162301;23;20001;-78
2022/01/10 04:35:47;;;;;;;1.00;0.50;;;-0.30;92.70;;;;;;6213992;23;19997;-78
2022/01/10 04:38:13;;;;;;;0.80;0.60;;;-0.20;92.70;;;;;;6210367;23;20417;-77
2022/01/10 04:40:39;;;;;;;0.55;0.40;;;-0.20;92.70;;;;;;6187048;23;20380;-78
2022/01/10 04:43:05;;;;;;;1.05;0.40;;;-0.10;92.70;;;;;;6210984;23;20008;-78
2022/01/10 04:45:30;;;;;;;0.50;0.50;;;-0.10;92.70;;;;;;6209893;23;20012;-78
2022/01/10 04:47:56;;;;;;;0.80;0.60;;;0.00;92.70;;;;;;6212141;23;20070;-78
2022/01/10 04:50:45;;;;;;;0.43;0.32;;;-0.10;92.70;;;;;;6161516;23;20105;-78
2022/01/10 04:53:08;;;;;;;1.15;0.60;;;0.00;92.70;;;;;;6213462;23;20028;-78
2022/01/10 04:55:33;;;;;;;0.47;0.38;;;0.00;92.60;;;;;;6187138;23;20491;-78
2022/01/10 04:57:59;;;;;;;0.70;0.35;;;0.10;92.60;;;;;;6209190;23;20027;-78
2022/01/10 05:00:25;;;;;;;0.80;0.50;;;0.10;92.90;;;;;;6211943;23;20026;-78
2022/01/10 05:02:52;;;;;;;1.35;0.70;;;0.20;92.60;;;;;;6210943;23;20310;-78
2022/01/10 05:05:18;;;;;;;1.55;0.70;;;0.20;92.60;;;;;;6210670;23;20007;-77
2022/01/10 05:07:44;;;;;;;1.20;0.80;;;0.20;92.60;;;;;;6213809;23;20013;-78
2022/01/10 05:10:09;;;;;;;1.17;0.70;;;0.20;92.50;;;;;;6214298;23;20008;-78
2022/01/10 05:12:35;;;;;;;1.15;0.60;;;0.30;92.50;;;;;;6213665;23;19996;-78
2022/01/10 05:15:01;;;;;;;0.85;0.60;;;0.30;92.50;;;;;;6210409;23;20380;-78
2022/01/10 05:17:27;;;;;;;0.88;0.50;;;0.30;92.80;;;;;;6211477;23;20000;-77
2022/01/10 05:19:52;;;;;;;0.85;0.52;;;0.30;92.50;;;;;;6187190;23;20008;-78
2022/01/10 05:22:18;;;;;;;1.02;0.50;;;0.40;92.50;;;;;;6187238;23;20000;-78
2022/01/10 05:24:44;;;;;;;1.38;0.65;;;0.40;92.50;;;;;;6214830;23;20007;-78
2022/01/10 05:27:09;;;;;;;0.65;0.60;;;0.40;92.50;;;;;;6211038;23;20463;-78
2022/01/10 05:29:35;;;;;;;0.90;0.57;;;0.40;92.50;;;;;;6213694;23;19997;-78
2022/01/10 05:32:01;;;;;;;1.83;0.85;;;0.50;92.50;;;;;;6162125;23;20083;-78
2022/01/10 05:34:27;;;;;;;0.80;0.50;;;0.60;92.50;;;;;;6213966;23;20000;-78
2022/01/10 05:36:52;;;;;;;1.58;0.80;;;0.70;92.50;;;;;;6185464;23;20016;-77
2022/01/10 05:39:18;;;;;;;1.52;0.73;;;0.60;92.50;;;;;;6213815;23;20028;-78
2022/01/10 05:41:44;;;;;;;1.65;0.77;;;0.60;92.50;;;;;;6187105;23;20024;-78
2022/01/10 05:44:10;;;;;;;0.90;0.75;;;0.70;92.50;;;;;;6211145;23;20008;-78
2022/01/10 05:46:38;;;;;;;0.73;0.55;;;0.70;92.50;;;;;;6186357;23;20043;-78
2022/01/10 05:49:04;;;;;;;1.30;0.60;;;0.60;92.40;;;;;;6211254;23;20025;-78
2022/01/10 05:51:34;;;;;;;0.70;0.40;;;0.70;92.50;;;;;;6213796;23;20340;-78
2022/01/10 05:54:02;;;;;;;0.70;0.50;;;0.80;92.50;;;;;;6188071;23;20502;-78
2022/01/10 05:56:27;;;;;;;1.15;0.70;;;0.80;92.50;;;;;;6186177;23;20080;-78
2022/01/10 05:58:53;;;;;;;1.20;0.60;;;0.80;92.50;;;;;;6210256;23;20428;-78
2022/01/10 06:01:19;;;;;;;0.93;0.68;;;0.80;92.50;;;;;;6209570;23;20008;-78
2022/01/10 06:03:45;;;;;;;1.30;0.90;;;0.80;92.50;;;;;;6186955;23;20005;-78
2022/01/10 06:06:11;;;;;;;0.65;0.50;;;0.90;92.50;;;;;;6185181;23;20336;-78
2022/01/10 06:08:37;;;;;;;1.20;0.70;;;0.90;92.50;;;;;;6213520;23;20016;-78
2022/01/10 06:11:02;;;;;;;0.73;0.50;;;0.90;92.50;;;;;;6186797;23;20424;-78
2022/01/10 06:13:28;;;;;;;0.88;0.50;;;0.90;92.50;;;;;;6210281;23;20131;-78
2022/01/10 06:15:55;;;;;;;1.05;0.60;;;0.90;92.50;;;;;;6158828;23;20140;-77
2022/01/10 06:18:21;;;;;;;1.70;0.70;;;0.90;92.50;;;;;;6213953;23;19996;-77
2022/01/10 06:20:46;;;;;;;1.27;0.70;;;0.90;92.50;;;;;;6211141;23;20088;-77
2022/01/10 06:23:12;;;;;;;2.05;0.80;;;1.00;92.50;;;;;;6210435;23;20062;-77
2022/01/10 06:25:39;;;;;;;0.90;0.68;;;1.00;92.50;;;;;;6187039;23;20008;-78
2022/01/10 06:28:06;;;;;;;0.80;0.60;;;1.00;92.50;;;;;;6161710;23;20038;-78
2022/01/10 06:30:32;;;;;;;0.80;0.52;;;0.90;92.50;;;;;;6213906;23;20448;-79
2022/01/10 06:32:57;;;;;;;1.00;0.77;;;1.00;92.60;;;;;;6210951;23;19996;-80
2022/01/10 06:35:24;;;;;;;1.02;0.65;;;1.00;92.50;;;;;;6212446;23;20016;-79
2022/01/10 06:37:50;;;;;;;1.00;0.65;;;1.10;92.60;;;;;;6187148;23;20372;-79
2022/01/10 06:40:16;;;;;;;0.85;0.70;;;1.10;92.60;;;;;;6210584;23;20374;-80
2022/01/10 06:42:42;;;;;;;1.48;0.88;;;1.00;92.50;;;;;;6213503;23;20032;-77
2022/01/10 06:45:09;;;;;;;0.98;0.60;;;1.00;92.50;;;;;;6213259;23;20024;-77
2022/01/10 06:47:35;;;;;;;0.95;0.60;;;1.10;92.60;;;;;;6211143;23;20020;-77
2022/01/10 06:50:02;;;;;;;1.35;0.77;;;1.10;92.60;;;;;;6213290;23;20001;-77
2022/01/10 06:52:27;;;;;;;1.23;0.80;;;1.10;92.60;;;;;;6186054;23;20011;-77
2022/01/10 06:54:53;;;;;;;1.15;0.57;;;1.10;92.60;;;;;;6210704;23;20365;-77
2022/01/10 06:57:19;;;;;;;1.02;0.68;;;1.10;92.60;;;;;;6159828;23;20011;-78
2022/01/10 06:59:44;;;;;;;1.38;0.75;;;1.10;92.60;;;;;;6214013;23;20316;-78
2022/01/10 07:02:10;;;;;;;1.63;0.70;;;1.10;92.60;;;;;;6185871;23;20041;-78
2022/01/10 07:04:36;;;;;;;1.35;0.90;;;1.10;92.60;;;;;;6213144;23;20436;-77
2022/01/10 07:07:02;;;;;;;1.10;0.73;;;1.20;92.60;;;;;;6208745;23;20007;-77
2022/01/10 07:09:28;;;;;;;1.30;0.70;;;1.20;92.60;;;;;;6211215;23;20013;-77
2022/01/10 07:11:54;;;;;;;0.98;0.60;;;1.20;92.60;;;;;;6219144;23;20127;-82
2022/01/10 07:14:20;;;;;;;0.98;0.63;;;1.20;92.60;;;;;;6166569;23;20007;-83
2022/01/10 07:16:48;;;;;;;1.08;0.65;;;1.30;92.70;;;;;;6165446;23;20491;-82
2022/01/10 07:19:14;;;;;;;1.02;0.60;;;1.20;92.60;;;;;;6164917;23;20012;-82
2022/01/10 07:21:42;;;;;;;1.63;1.15;;;1.20;92.60;;;;;;6196318;23;20024;-82
2022/01/10 07:24:08;;;;;;;0.63;0.63;;;1.20;92.60;;;;;;6184606;23;20005;-82
2022/01/10 07:26:34;;;;;;;1.83;0.90;;;1.30;92.70;;;;;;6213397;23;20007;-82
2022/01/10 07:29:01;;;;;;;1.75;0.90;;;1.20;92.60;;;;;;6189582;23;20009;-83
2022/01/10 07:31:27;;;;;;;1.35;0.90;;;1.20;92.60;;;;;;6165213;23;20007;-83
2022/01/10 07:33:54;;;;;;;4.60;1.45;;;1.20;92.70;;;;;;6160330;23;20008;-83
2022/01/10 07:36:20;;;;;;;1.48;0.88;;;1.20;92.70;;;;;;6186341;23;20324;-83
2022/01/10 07:38:46;;;;;;;1.67;0.88;;;1.20;92.70;;;;;;6213077;23;20024;-83
2022/01/10 07:41:12;;;;;;;1.80;1.10;;;1.20;92.70;;;;;;6185063;23;20368;-83
2022/01/10 07:43:38;;;;;;;1.40;0.85;;;1.00;92.70;;;;;;6185948;23;20000;-84
2022/01/10 07:46:05;;;;;;;1.17;0.85;;;1.20;92.80;;;;;;6186679;23;20009;-83
2022/01/10 07:48:34;;;;;;;1.67;0.90;;;1.10;92.80;;;;;;6181762;23;20547;-83
2022/01/10 07:51:00;;;;;;;0.93;0.60;;;1.20;92.80;;;;;;6186637;23;20008;-83
2022/01/10 07:53:25;;;;;;;0.80;0.68;;;1.20;92.80;;;;;;6185638;23;20364;-83
2022/01/10 07:55:51;;;;;;;1.77;0.80;;;1.10;92.80;;;;;;6185945;23;20001;-83
2022/01/10 07:58:17;;;;;;;1.38;0.85;;;1.10;92.80;;;;;;6161703;23;20012;-83
2022/01/10 08:00:44;;;;;;;2.33;0.90;;;1.10;92.80;;;;;;6214862;23;20001;-83
2022/01/10 08:03:10;;;;;;;1.48;0.75;;;1.10;92.90;;;;;;6214962;23;20036;-83
2022/01/10 08:05:36;;;;;;;1.83;0.82;;;1.10;92.90;;;;;;6216552;23;20005;-81
2022/01/10 08:08:02;;;;;;;1.17;0.80;;;1.10;93.10;;;;;;6164384;23;20017;-82
2022/01/10 08:10:28;;;;;;;1.35;0.80;;;1.10;92.90;;;;;;6187164;23;20091;-83
2022/01/10 08:12:53;;;;;;;2.20;1.00;;;1.10;92.80;;;;;;6163545;23;20017;-83
2022/01/10 08:15:20;;;;;;;2.78;1.10;;;1.20;92.90;;;;;;6186698;23;20455;-83
2022/01/10 08:17:46;;;;;;;1.13;0.80;;;1.20;92.90;;;;;;6187453;23;20445;-82
2022/01/10 08:20:13;;;;;;;1.80;0.88;;;1.20;92.90;;;;;;6214672;23;20004;-82
2022/01/10 08:22:39;;;;;;;2.10;1.02;;;1.20;92.90;;;;;;6212084;23;20099;-82
2022/01/10 08:25:07;;;;;;;1.33;0.90;;;1.30;92.90;;;;;;6184742;23;20012;-82
2022/01/10 08:27:34;;;;;;;2.05;1.00;;;1.30;92.90;;;;;;6212800;23;20067;-82
2022/01/10 08:30:00;;;;;;;1.40;0.73;;;1.30;92.80;;;;;;6186718;23;20009;-83
2022/01/10 08:32:26;;;;;;;1.23;0.73;;;1.40;92.80;;;;;;6162682;23;20089;-83
2022/01/10 08:34:51;;;;;;;1.38;0.70;;;1.30;92.80;;;;;;6184970;23;20068;-82
2022/01/10 08:37:17;;;;;;;1.80;0.90;;;1.30;92.80;;;;;;6186775;23;20001;-82
2022/01/10 08:39:49;;;;;;;1.13;0.80;;;1.40;92.70;;;;;;6161315;23;20008;-82
2022/01/10 08:42:16;;;;;;;2.33;0.90;;;1.50;92.80;;;;;;6190224;23;20027;-82
2022/01/10 08:44:42;;;;;;;2.30;1.05;;;1.40;92.70;;;;;;6162783;23;20076;-82
2022/01/10 08:47:08;;;;;;;1.75;1.00;;;1.40;92.70;;;;;;6210136;23;20003;-83
2022/01/10 08:49:34;;;;;;;1.23;0.80;;;1.60;92.70;;;;;;6162414;23;20096;-82
2022/01/10 08:52:00;;;;;;;1.80;0.93;;;1.50;92.70;;;;;;6187591;23;20007;-83
2022/01/10 08:54:25;;;;;;;1.33;0.88;;;1.50;92.70;;;;;;6210038;23;20011;-83
2022/01/10 08:56:52;;;;;;;0.80;0.70;;;1.50;92.70;;;;;;6162394;23;20008;-83
2022/01/10 08:59:18;;;;;;;1.40;0.82;;;1.60;92.70;;;;;;6186735;23;20017;-81
2022/01/10 09:01:46;;;;;;;1.95;1.15;;;1.60;92.70;;;;;;6190100;23;20005;-80
2022/01/10 09:04:16;;;;;;;1.75;1.15;;;1.60;92.70;;;;;;6187978;23;20009;-81
2022/01/10 09:06:43;;;;;;;1.92;1.00;;;1.60;92.60;;;;;;6162277;23;20028;-78
2022/01/10 09:09:10;;;;;;;1.10;0.82;;;1.70;92.40;;;;;;6190965;23;20083;-77
2022/01/10 09:11:35;;;;;;;1.63;0.90;;;1.70;92.60;;;;;;6211877;23;20062;-79
2022/01/10 09:14:01;;;;;;;1.35;0.77;;;1.80;92.60;;;;;;6188139;23;20040;-80
2022/01/10 09:16:27;;;;;;;2.35;1.10;;;1.90;92.60;;;;;;6210977;23;20092;-79
2022/01/10 09:18:53;;;;;;;2.22;1.20;;;1.90;92.60;;;;;;6187032;23;20048;-79
2022/01/10 09:21:18;;;;;;;1.63;1.00;;;1.90;92.60;;;;;;6212452;23;20012;-79
2022/01/10 09:23:44;;;;;;;1.83;0.90;;;1.90;92.50;;;;;;6185191;23;20444;-79
2022/01/10 09:26:10;;;;;;;1.63;1.00;;;2.00;92.50;;;;;;6209396;23;20016;-80
2022/01/10 09:28:36;;;;;;;2.03;1.08;;;2.00;92.50;;;;;;6186395;23;20009;-79
2022/01/10 09:31:02;;;;;;;1.83;1.00;;;2.10;92.50;;;;;;6213844;23;20429;-79
2022/01/10 09:33:27;;;;;;;1.83;1.08;;;2.20;92.50;;;;;;6187034;23;20437;-80
2022/01/10 09:35:53;;;;;;;2.35;1.10;;;2.20;92.50;;;;;;6187730;23;20373;-80
2022/01/10 09:38:19;;;;;;;1.48;0.90;;;2.20;92.40;;;;;;6160910;23;20001;-82
2022/01/10 09:40:45;;;;;;;1.65;1.00;;;2.30;92.40;;;;;;6185218;23;20028;-82
2022/01/10 09:43:11;;;;;;;2.67;1.38;;;2.30;92.40;;;;;;6187167;23;20009;-81
2022/01/10 09:45:38;;;;;;;3.13;1.40;;;2.40;92.40;;;;;;6186412;23;20008;-80
2022/01/10 09:48:05;;;;;;;1.48;1.10;;;2.40;92.40;;;;;;6185968;23;20139;-83
2022/01/10 09:50:30;;;;;;;2.35;1.20;;;2.50;92.40;;;;;;6187861;23;20008;-88
2022/01/10 09:52:57;;;;;;;2.17;1.40;;;2.50;92.40;;;;;;6164192;23;20005;-82
2022/01/10 09:55:23;;;;;;;2.03;1.15;;;2.60;92.30;;;;;;6164696;23;20008;-84
2022/01/10 09:57:49;;;;;;;2.03;1.23;;;2.60;92.30;;;;;;6186566;23;20066;-86
2022/01/10 10:00:16;;;;;;;2.15;1.27;;;2.70;92.30;;;;;;6162467;23;20004;-86
2022/01/10 10:02:45;;;;;;;3.65;1.40;;;2.80;92.30;;;;;;6166641;23;20004;-86
2022/01/10 10:05:12;;;;;;;2.88;1.35;;;2.70;92.30;;;;;;6163190;23;20001;-85
2022/01/10 10:07:39;;;;;;;2.45;1.35;;;2.80;92.30;;;;;;6187032;23;20011;-86
2022/01/10 10:10:11;;;;;;;2.78;1.20;;;2.80;92.30;;;;;;6161216;23;20004;-85
2022/01/10 10:12:42;;;;;;;2.20;1.30;;;2.80;92.20;;;;;;6164383;23;20072;-85
2022/01/10 10:15:09;;;;;;;2.70;1.52;;;2.80;92.30;;;;;;6156528;23;20013;-85
2022/01/10 10:17:37;;;;;;;3.35;1.45;;;2.90;92.30;;;;;;6157285;23;20001;-85
2022/01/10 10:20:12;;;;;;;3.25;1.60;;;3.00;92.30;;;;;;6159613;23;20001;-86
2022/01/10 10:22:40;;;;;;;2.92;1.58;;;3.00;92.30;;;;;;6157522;23;20527;-85
2022/01/10 10:25:10;;;;;;;3.08;1.50;;;3.00;92.30;;;;;;6156833;23;20023;-85
2022/01/10 10:27:47;;;;;;;3.45;1.80;;;3.00;92.30;;;;;;6127134;23;20020;-85
2022/01/10 10:30:41;;;;;;;3.97;1.67;;;3.20;92.30;;;;;;6127320;23;20138;-84
2022/01/10 10:33:16;;;;;;;3.88;1.67;;;3.20;92.20;;;;;;6127922;23;20012;-86
2022/01/10 10:35:44;;;;;;;3.80;1.90;;;3.30;92.10;;;;;;6121370;23;20017;-85
2022/01/10 10:38:10;;;;;;;3.72;1.85;;;3.30;92.10;;;;;;6052268;23;20025;-83
2022/01/10 10:40:41;;;;;;;3.72;2.05;;;3.30;92.10;;;;;;6072777;23;20096;-83
2022/01/10 10:43:09;;;;;;;2.97;1.50;;;3.30;92.10;;;;;;6101635;23;20014;-83
2022/01/10 10:45:35;;;;;;;4.18;1.92;;;3.40;92.10;;;;;;6071863;23;20021;-83
2022/01/10 10:48:06;;;;;;;3.42;1.83;;;3.40;92.10;;;;;;6099334;23;20018;-83
2022/01/10 10:50:42;;;;;;;3.65;1.83;;;3.50;92.10;;;;;;6075923;23;20014;-85
2022/01/10 10:53:10;;;;;;;3.75;1.98;;;3.50;92.10;;;;;;6077747;23;20017;-85
2022/01/10 10:55:39;;;;;;;3.72;2.03;;;3.50;92.10;;;;;;6055423;23;20034;-85
2022/01/10 10:58:06;;;;;;;4.05;2.20;;;3.60;92.10;;;;;;6119411;23;20045;-85
2022/01/10 11:00:32;;;;;;;3.53;1.90;;;3.60;92.10;;;;;;6156606;23;20044;-87
2022/01/10 11:02:58;;;;;;;4.63;2.40;;;3.70;92.10;;;;;;6156174;23;20072;-85
2022/01/10 11:05:25;;;;;;;5.00;2.00;;;3.60;92.00;;;;;;6158096;23;20028;-84
2022/01/10 11:07:51;;;;;;;3.90;2.00;;;3.70;92.10;;;;;;6224305;23;20017;-84
2022/01/10 11:10:17;;;;;;;3.58;2.05;;;3.60;92.00;;;;;;6165891;23;20031;-85
2022/01/10 11:12:50;;;;;;;3.03;1.60;;;3.80;92.10;;;;;;6186576;23;20001;-87
2022/01/10 11:15:16;;;;;;;4.45;1.90;;;3.80;92.10;;;;;;6169288;23;20509;-85
2022/01/10 11:17:43;;;;;;;4.63;2.13;;;3.80;92.00;;;;;;6157219;23;20009;-85
2022/01/10 11:20:15;;;;;;;4.60;1.98;;;3.80;92.00;;;;;;6084748;23;20108;-84
2022/01/10 11:22:44;;;;;;;5.47;2.50;;;3.90;92.10;;;;;;6076811;23;20049;-85
2022/01/10 11:25:30;;;;;;;4.07;2.15;;;3.90;92.00;;;;;;6041985;23;20025;-84
2022/01/10 11:28:01;;;;;;;5.00;2.40;;;4.00;92.00;;;;;;6070327;23;20089;-84
2022/01/10 11:30:36;;;;;;;3.42;1.85;;;4.00;92.00;;;;;;6073401;23;20042;-85
2022/01/10 11:33:14;;;;;;;5.68;2.50;;;4.10;92.00;;;;;;6069494;23;20018;-85
2022/01/10 11:35:52;;;;;;;4.28;2.08;;;4.20;91.90;;;;;;6065203;23;20051;-83
2022/01/10 11:38:35;;;;;;;4.15;1.90;;;4.20;91.80;;;;;;6041144;23;20463;-83
2022/01/10 11:41:23;;;;;;;4.00;2.00;;;4.30;91.80;;;;;;6064055;23;20447;-82
2022/01/10 11:44:02;;;;;;;3.45;2.08;;;4.30;91.80;;;;;;6058376;23;20414;-82
2022/01/10 11:46:48;;;;;;;6.15;2.40;;;4.40;91.80;;;;;;6059580;23;20011;-82
2022/01/10 11:49:17;;;;;;;6.07;2.30;;;4.40;91.80;;;;;;6064601;23;20034;-82
2022/01/10 11:52:01;;;;;;;6.15;2.50;;;4.40;91.70;;;;;;6105108;23;20089;-82
2022/01/10 11:54:37;;;;;;;4.85;2.50;;;4.50;91.70;;;;;;6131454;23;20448;-82
2022/01/10 11:57:06;;;;;;;4.82;2.50;;;4.60;91.70;;;;;;6090552;23;20346;-82
2022/01/10 11:59:39;;;;;;;5.85;2.53;;;4.60;91.60;;;;;;6108195;23;20420;-82
2022/01/10 12:02:10;;;;;;;4.70;2.40;;;4.60;91.60;;;;;;6154950;23;20043;-82
2022/01/10 12:04:40;;;;;;;4.35;2.30;;;4.70;91.60;;;;;;6151827;23;20021;-82
2022/01/10 12:07:08;;;;;;;4.00;2.25;;;4.80;91.60;;;;;;6188508;23;20021;-81
2022/01/10 12:09:35;;;;;;;3.83;1.98;;;4.80;91.60;;;;;;6190302;23;20096;-83
2022/01/10 12:12:03;;;;;;;4.50;2.05;;;4.90;91.60;;;;;;6160235;23;20083;-83
2022/01/10 12:14:30;;;;;;;5.65;2.28;;;5.10;91.60;;;;;;6160252;23;20455;-83
2022/01/10 12:16:58;;;;;;;4.68;2.58;;;5.00;91.50;;;;;;6162034;23;20020;-83
2022/01/10 12:19:24;;;;;;;4.63;2.72;;;5.20;91.50;;;;;;6161840;23;20024;-82
2022/01/10 12:21:50;;;;;;;5.28;2.53;;;5.20;91.40;;;;;;6186252;23;20013;-81
2022/01/10 12:24:17;;;;;;;4.85;2.63;;;5.30;91.40;;;;;;6192881;23;20063;-81
2022/01/10 12:26:43;;;;;;;5.28;3.08;;;5.30;91.30;;;;;;6220533;23;20089;-83
2022/01/10 12:29:14;;;;;;;6.55;3.17;;;5.40;91.30;;;;;;6164580;23;20033;-84
2022/01/10 12:31:41;;;;;;;5.10;2.72;;;5.50;91.30;;;;;;6162581;23;20024;-78
2022/01/10 12:34:09;;;;;;;5.97;2.50;;;5.60;91.30;;;;;;6159004;23;20013;-76
2022/01/10 12:36:36;;;;;;;5.03;2.78;;;5.50;91.20;;;;;;6186354;23;19997;-79
2022/01/10 12:39:10;;;;;;;5.45;2.88;;;5.60;91.20;;;;;;6159928;23;20491;-87
2022/01/10 12:41:39;;;;;;;4.25;2.40;;;5.60;91.20;;;;;;6160748;23;20013;-79
2022/01/10 12:44:05;;;;;;;5.03;2.63;;;5.70;91.20;;;;;;6161945;23;20009;-78
2022/01/10 12:46:33;;;;;;;5.20;2.40;;;5.80;91.20;;;;;;6192592;23;20303;-78
2022/01/10 12:49:03;;;;;;;5.15;2.80;;;5.80;91.20;;;;;;6190050;23;20036;-79
2022/01/10 12:51:45;;;;;;;5.10;2.60;;;5.90;91.20;;;;;;6188041;23;20155;-79
2022/01/10 12:54:15;;;;;;;4.25;2.85;;;5.90;91.10;;;;;;6123319;23;20017;-77
2022/01/10 12:56:42;;;;;;;5.20;2.80;;;5.90;91.10;;;;;;6147397;23;20021;-78
2022/01/10 12:59:10;;;;;;;5.18;2.63;;;6.10;91.10;;;;;;6151617;23;20083;-79
2022/01/10 13:01:36;;;;;;;5.75;2.90;;;6.00;91.00;;;;;;6122468;23;20006;-79
2022/01/10 13:04:02;;;;;;;5.10;2.53;;;6.00;91.00;;;;;;6148577;23;20021;-76
2022/01/10 13:06:32;;;;;;;5.72;2.58;;;6.10;91.10;;;;;;6152406;23;20006;-77